createdAt,value
2023-04-06T00:00:54.958Z,1.48
2023-04-06T00:01:55.036Z,1.49
2023-04-06T00:02:55.190Z,1.50
2023-04-06T00:03:55.157Z,1.48
2023-04-06T00:04:55.161Z,1.49
2023-04-06T00:05:55.323Z,1.47
2023-04-06T00:06:55.251Z,1.49
2023-04-06T00:07:55.295Z,1.49
2023-04-06T00:08:55.370Z,1.47
2023-04-06T00:09:55.397Z,1.49
2023-04-06T00:10:55.485Z,1.48
2023-04-06T00:11:55.529Z,1.50
2023-04-06T00:12:55.529Z,1.47
2023-04-06T00:13:55.603Z,1.50
2023-04-06T00:14:55.643Z,1.50
2023-04-06T00:15:55.740Z,1.51
2023-04-06T00:16:55.836Z,1.50
2023-04-06T00:17:55.878Z,1.49
2023-04-06T00:18:55.852Z,1.46
2023-04-06T00:19:55.888Z,1.47
2023-04-06T00:20:55.931Z,1.50
2023-04-06T00:21:56.119Z,1.49
2023-04-06T00:22:56.063Z,1.50
2023-04-06T00:23:56.123Z,1.52
2023-04-06T00:24:56.184Z,1.47
2023-04-06T00:25:56.198Z,1.49
2023-04-06T00:26:56.243Z,1.48
2023-04-06T00:27:56.312Z,1.48
2023-04-06T00:28:56.320Z,1.49
2023-04-06T00:29:56.438Z,1.51
2023-04-06T00:30:56.501Z,1.51
2023-04-06T00:31:56.478Z,1.48
2023-04-06T00:32:56.628Z,1.50
2023-04-06T00:33:56.585Z,1.45
2023-04-06T00:34:56.664Z,1.48
2023-04-06T00:35:56.741Z,1.44
2023-04-06T00:36:56.786Z,1.46
2023-04-06T00:37:56.835Z,1.50
2023-04-06T00:38:56.899Z,1.52
2023-04-06T00:39:56.900Z,1.51
2023-04-06T00:40:56.949Z,1.48
2023-04-06T00:41:57.019Z,1.49
2023-04-06T00:42:57.069Z,1.49
2023-04-06T00:43:57.144Z,1.53
2023-04-06T00:44:57.245Z,1.51
2023-04-06T00:45:57.264Z,1.49
2023-04-06T00:46:57.298Z,1.51
2023-04-06T00:47:57.459Z,1.50
2023-04-06T00:48:57.403Z,1.47
2023-04-06T00:49:57.515Z,1.45
2023-04-06T00:50:57.578Z,1.51
2023-04-06T00:51:57.615Z,1.52
2023-04-06T00:52:57.662Z,1.51
2023-04-06T00:53:57.698Z,1.51
2023-04-06T00:54:57.724Z,1.52
2023-04-06T00:55:57.847Z,1.50
2023-04-06T00:56:57.894Z,1.48
2023-04-06T00:57:57.893Z,1.47
2023-04-06T00:58:57.985Z,1.47
2023-04-06T00:59:58.068Z,1.50
2023-04-06T01:00:58.083Z,1.47
2023-04-06T01:01:58.273Z,1.49
2023-04-06T01:02:58.217Z,1.47
2023-04-06T01:03:58.306Z,1.52
2023-04-06T01:04:58.442Z,1.51
2023-04-06T01:05:58.435Z,1.48
2023-04-06T01:06:58.451Z,1.44
2023-04-06T01:07:58.532Z,1.46
2023-04-06T01:08:58.578Z,1.50
2023-04-06T01:09:58.657Z,1.51
2023-04-06T01:10:58.701Z,1.49
2023-04-06T01:11:58.770Z,1.51
2023-04-06T01:12:58.802Z,1.53
2023-04-06T01:13:58.863Z,1.49
2023-04-06T01:14:58.937Z,1.45
2023-04-06T01:15:59.029Z,1.47
2023-04-06T01:16:59.026Z,1.49
2023-04-06T01:17:59.164Z,1.47
2023-04-06T01:18:59.182Z,1.49
2023-04-06T01:19:59.207Z,1.48
2023-04-06T01:20:59.269Z,1.50
2023-04-06T01:21:59.348Z,1.48
2023-04-06T01:22:59.393Z,1.51
2023-04-06T01:23:59.462Z,1.50
2023-04-06T01:24:59.525Z,1.49
2023-04-06T01:25:59.579Z,1.51
2023-04-06T01:26:59.637Z,1.49
2023-04-06T01:27:59.671Z,1.49
2023-04-06T01:28:59.817Z,1.47
2023-04-06T01:29:59.821Z,1.48
2023-04-06T01:30:59.919Z,1.47
2023-04-06T01:31:59.939Z,1.45
2023-04-06T01:33:00.130Z,1.45
2023-04-06T01:34:00.018Z,1.47
2023-04-06T01:35:00.105Z,1.48
2023-04-06T01:36:00.225Z,1.47
2023-04-06T01:37:00.212Z,1.47
2023-04-06T01:38:00.275Z,1.49
2023-04-06T01:39:00.390Z,1.50
2023-04-06T01:40:00.383Z,1.48
2023-04-06T01:41:00.504Z,1.47
2023-04-06T01:42:00.569Z,1.45
2023-04-06T01:43:00.603Z,1.50
2023-04-06T01:44:00.675Z,1.47
2023-04-06T01:45:00.737Z,1.49
2023-04-06T01:46:00.767Z,1.51
2023-04-06T01:47:00.926Z,1.47
2023-04-06T01:48:00.930Z,1.50
2023-04-06T01:49:00.950Z,1.52
2023-04-06T01:50:00.985Z,1.49
2023-04-06T01:51:01.064Z,1.45
2023-04-06T01:52:01.137Z,1.50
2023-04-06T01:53:01.095Z,1.49
2023-04-06T01:54:01.151Z,1.46
2023-04-06T01:55:01.266Z,1.47
2023-04-06T01:56:01.214Z,1.49
2023-04-06T01:57:01.255Z,1.48
2023-04-06T01:58:01.255Z,1.49
2023-04-06T01:59:01.294Z,1.49
2023-04-06T02:00:01.361Z,1.51
2023-04-06T02:01:01.497Z,1.48
2023-04-06T02:02:01.507Z,1.49
2023-04-06T02:03:01.653Z,1.48
2023-04-06T02:04:01.591Z,1.47
2023-04-06T02:05:01.587Z,1.50
2023-04-06T02:06:01.599Z,1.47
2023-04-06T02:07:01.759Z,1.45
2023-04-06T02:08:01.733Z,1.49
2023-04-06T02:09:01.733Z,1.49
2023-04-06T02:10:01.729Z,1.49
2023-04-06T02:11:01.789Z,1.50
2023-04-06T02:12:01.857Z,1.53
2023-04-06T02:13:01.863Z,1.51
2023-04-06T02:14:01.843Z,1.50
2023-04-06T02:15:01.868Z,1.49
2023-04-06T02:16:01.987Z,1.48
2023-04-06T02:17:01.940Z,1.47
2023-04-06T02:18:02.064Z,1.45
2023-04-06T02:19:02.036Z,1.46
2023-04-06T02:20:02.102Z,1.46
2023-04-06T02:21:02.107Z,1.51
2023-04-06T02:22:02.139Z,1.49
2023-04-06T02:23:02.140Z,1.49
2023-04-06T02:24:02.212Z,1.45
2023-04-06T02:25:02.239Z,1.50
2023-04-06T02:26:02.262Z,1.50
2023-04-06T02:27:02.294Z,1.45
2023-04-06T02:28:02.351Z,1.47
2023-04-06T02:29:02.379Z,1.50
2023-04-06T02:30:02.374Z,1.48
2023-04-06T02:31:02.375Z,1.46
2023-04-06T02:32:02.444Z,1.47
2023-04-06T02:33:02.456Z,1.43
2023-04-06T02:34:02.447Z,1.46
2023-04-06T02:35:02.444Z,1.42
2023-04-06T02:36:02.479Z,1.46
2023-04-06T02:37:02.470Z,1.42
2023-04-06T02:38:02.473Z,1.45
2023-04-06T02:39:02.515Z,1.45
2023-04-06T02:40:02.548Z,1.46
2023-04-06T02:41:02.505Z,1.47
2023-04-06T02:42:02.491Z,1.47
2023-04-06T02:43:02.490Z,1.48
2023-04-06T02:44:02.511Z,1.47
2023-04-06T02:45:02.473Z,1.48
2023-04-06T02:46:02.614Z,1.46
2023-04-06T02:47:02.492Z,1.48
2023-04-06T02:48:02.512Z,1.48
2023-04-06T02:49:02.517Z,1.44
2023-04-06T02:50:02.518Z,1.45
2023-04-06T02:51:02.462Z,1.41
2023-04-06T02:52:02.470Z,1.47
2023-04-06T02:53:02.520Z,1.47
2023-04-06T02:54:02.548Z,1.48
2023-04-06T02:55:02.588Z,1.45
2023-04-06T02:56:02.497Z,1.44
2023-04-06T02:57:02.558Z,1.46
2023-04-06T02:58:02.568Z,1.48
2023-04-06T02:59:02.641Z,1.47
2023-04-06T03:00:02.486Z,1.45
2023-04-06T03:01:02.640Z,1.46
2023-04-06T03:02:02.601Z,1.44
2023-04-06T03:03:02.667Z,1.46
2023-04-06T03:04:02.524Z,1.47
2023-04-06T03:05:02.562Z,1.44
2023-04-06T03:06:02.514Z,1.51
2023-04-06T03:07:02.532Z,1.46
2023-04-06T03:08:02.544Z,1.48
2023-04-06T03:09:02.537Z,1.48
2023-04-06T03:10:02.480Z,1.50
2023-04-06T03:11:02.555Z,1.45
2023-04-06T03:12:02.483Z,1.42
2023-04-06T03:13:02.493Z,1.44
2023-04-06T03:14:02.516Z,1.46
2023-04-06T03:15:02.505Z,1.43
2023-04-06T03:16:02.654Z,1.42
2023-04-06T03:17:02.525Z,1.46
2023-04-06T03:18:02.576Z,1.44
2023-04-06T03:19:02.538Z,1.46
2023-04-06T03:20:02.561Z,1.46
2023-04-06T03:21:02.524Z,1.46
2023-04-06T03:22:02.513Z,1.45
2023-04-06T03:23:02.547Z,1.47
2023-04-06T03:24:02.568Z,1.45
2023-04-06T03:25:03.842Z,1.44
2023-04-06T03:26:02.559Z,1.45
2023-04-06T03:27:02.572Z,1.44
2023-04-06T03:28:02.541Z,1.48
2023-04-06T03:29:02.536Z,1.44
2023-04-06T03:30:02.591Z,1.43
2023-04-06T03:31:02.631Z,1.43
2023-04-06T03:32:02.563Z,1.45
2023-04-06T03:33:02.634Z,1.45
2023-04-06T03:34:02.570Z,1.46
2023-04-06T03:35:02.592Z,1.44
2023-04-06T03:36:02.706Z,1.44
2023-04-06T03:37:09.972Z,1.46
2023-04-06T03:38:03.546Z,1.46
2023-04-06T03:39:02.566Z,1.47
2023-04-06T03:40:02.558Z,1.45
2023-04-06T03:41:02.553Z,1.44
2023-04-06T03:42:02.537Z,1.50
2023-04-06T03:43:02.552Z,1.46
2023-04-06T03:44:02.505Z,1.48
2023-04-06T03:45:02.539Z,1.47
2023-04-06T03:46:02.581Z,1.47
2023-04-06T03:47:02.490Z,1.48
2023-04-06T03:48:02.534Z,1.43
2023-04-06T03:49:02.503Z,1.46
2023-04-06T03:50:02.483Z,1.45
2023-04-06T03:51:02.469Z,1.48
2023-04-06T03:52:02.516Z,1.50
2023-04-06T03:53:02.495Z,1.43
2023-04-06T03:54:02.444Z,1.46
2023-04-06T03:55:02.447Z,1.50
2023-04-06T03:56:04.611Z,1.48
2023-04-06T03:57:02.481Z,1.47
2023-04-06T03:58:02.465Z,1.45
2023-04-06T03:59:02.512Z,1.47
2023-04-06T04:00:02.475Z,1.43
2023-04-06T04:01:02.445Z,1.44
2023-04-06T04:02:02.527Z,1.45
2023-04-06T04:03:02.613Z,1.44
2023-04-06T04:04:02.536Z,1.36
2023-04-06T04:05:02.512Z,1.30
2023-04-06T04:06:02.575Z,1.29
2023-04-06T04:07:02.547Z,1.28
2023-04-06T04:08:02.554Z,1.21
2023-04-06T04:09:02.544Z,1.18
2023-04-06T04:10:02.617Z,1.13
2023-04-06T04:11:02.631Z,1.08
2023-04-06T04:12:02.636Z,1.06
2023-04-06T04:13:03.284Z,1.02
2023-04-06T04:14:02.645Z,0.97
2023-04-06T04:15:02.694Z,0.94
2023-04-06T04:16:02.728Z,0.90
2023-04-06T04:17:02.713Z,0.85
2023-04-06T04:18:02.825Z,0.86
2023-04-06T04:19:02.847Z,0.81
2023-04-06T04:20:02.817Z,0.79
2023-04-06T04:21:02.909Z,0.76
2023-04-06T04:22:02.906Z,0.74
2023-04-06T04:23:02.930Z,0.73
2023-04-06T04:24:02.917Z,0.71
2023-04-06T04:25:03.052Z,0.70
2023-04-06T04:26:03.033Z,0.69
2023-04-06T04:27:03.043Z,0.68
2023-04-06T04:28:03.051Z,0.64
2023-04-06T04:29:03.098Z,0.65
2023-04-06T04:30:03.090Z,0.63
2023-04-06T04:31:03.203Z,0.63
2023-04-06T04:32:03.294Z,0.61
2023-04-06T04:33:03.246Z,0.63
2023-04-06T04:34:03.243Z,0.63
2023-04-06T04:35:03.269Z,0.64
2023-04-06T04:36:03.334Z,0.63
2023-04-06T04:37:03.322Z,0.64
2023-04-06T04:38:03.340Z,0.65
2023-04-06T04:39:03.337Z,0.66
2023-04-06T04:40:03.342Z,0.68
2023-04-06T04:41:03.345Z,0.68
2023-04-06T04:42:03.407Z,0.68
2023-04-06T04:43:03.393Z,0.66
2023-04-06T04:44:03.416Z,0.68
2023-04-06T04:45:03.420Z,0.69
2023-04-06T04:46:03.486Z,0.69
2023-04-06T04:47:03.501Z,0.71
2023-04-06T04:48:03.515Z,0.74
2023-04-06T04:49:03.431Z,0.75
2023-04-06T04:50:03.519Z,0.75
2023-04-06T04:51:03.530Z,0.76
2023-04-06T04:52:03.528Z,0.76
2023-04-06T04:53:03.543Z,0.77
2023-04-06T04:54:03.566Z,0.79
2023-04-06T04:55:03.564Z,0.78
2023-04-06T04:56:03.609Z,0.79
2023-04-06T04:57:03.603Z,0.79
2023-04-06T04:58:03.648Z,0.80
2023-04-06T04:59:03.735Z,0.79
2023-04-06T05:00:03.628Z,0.80
2023-04-06T05:01:03.773Z,0.79
2023-04-06T05:02:03.764Z,0.80
2023-04-06T05:03:03.758Z,0.80
2023-04-06T05:04:03.717Z,0.81
2023-04-06T05:05:03.788Z,0.83
2023-04-06T05:06:03.752Z,0.83
2023-04-06T05:07:03.796Z,0.84
2023-04-06T05:08:03.777Z,0.84
2023-04-06T05:09:03.789Z,0.83
2023-04-06T05:10:03.804Z,0.85
2023-04-06T05:11:03.800Z,0.84
2023-04-06T05:12:03.821Z,0.86
2023-04-06T05:13:03.829Z,0.85
2023-04-06T05:14:03.867Z,0.83
2023-04-06T05:15:03.836Z,0.86
2023-04-06T05:16:03.958Z,0.85
2023-04-06T05:17:04.027Z,0.87
2023-04-06T05:18:04.072Z,0.85
2023-04-06T05:19:03.920Z,0.87
2023-04-06T05:20:03.920Z,0.89
2023-04-06T05:21:03.924Z,0.88
2023-04-06T05:22:03.973Z,0.89
2023-04-06T05:23:03.956Z,0.89
2023-04-06T05:24:03.972Z,0.89
2023-04-06T05:25:03.995Z,0.87
2023-04-06T05:26:04.018Z,0.87
2023-04-06T05:27:03.985Z,0.89
2023-04-06T05:28:03.991Z,0.90
2023-04-06T05:29:04.013Z,0.89
2023-04-06T05:30:04.021Z,0.91
2023-04-06T05:31:04.135Z,0.90
2023-04-06T05:32:04.017Z,0.89
2023-04-06T05:33:04.097Z,0.91
2023-04-06T05:34:04.013Z,0.89
2023-04-06T05:35:04.080Z,0.93
2023-04-06T05:36:04.085Z,0.91
2023-04-06T05:37:04.098Z,0.91
2023-04-06T05:38:04.084Z,0.91
2023-04-06T05:39:04.125Z,0.91
2023-04-06T05:40:04.162Z,0.95
2023-04-06T05:41:04.177Z,0.92
2023-04-06T05:42:04.136Z,0.93
2023-04-06T05:43:04.202Z,0.90
2023-04-06T05:44:04.197Z,0.93
2023-04-06T05:45:04.222Z,0.91
2023-04-06T05:46:04.184Z,0.92
2023-04-06T05:47:04.179Z,0.92
2023-04-06T05:48:04.318Z,0.91
2023-04-06T05:49:06.677Z,0.92
2023-04-06T05:50:04.168Z,0.94
2023-04-06T05:51:04.185Z,0.95
2023-04-06T05:52:04.168Z,0.91
2023-04-06T05:53:04.172Z,0.91
2023-04-06T05:54:04.205Z,0.93
2023-04-06T05:55:04.158Z,0.92
2023-04-06T05:56:04.193Z,0.95
2023-04-06T05:57:04.289Z,0.94
2023-04-06T05:58:04.113Z,0.90
2023-04-06T05:59:04.139Z,0.94
2023-04-06T06:00:04.095Z,0.95
2023-04-06T06:01:04.097Z,0.92
2023-04-06T06:02:04.108Z,0.94
2023-04-06T06:03:04.156Z,0.93
2023-04-06T06:04:04.099Z,0.93
2023-04-06T06:05:04.179Z,0.93
2023-04-06T06:06:05.362Z,0.94
2023-04-06T06:07:04.046Z,0.94
2023-04-06T06:08:04.019Z,0.93
2023-04-06T06:09:04.069Z,0.97
2023-04-06T06:10:04.077Z,0.95
2023-04-06T06:11:03.997Z,0.95
2023-04-06T06:12:03.987Z,0.96
2023-04-06T06:13:04.020Z,0.93
2023-04-06T06:14:04.016Z,0.93
2023-04-06T06:15:04.011Z,0.93
2023-04-06T06:16:04.040Z,0.92
2023-04-06T06:17:03.941Z,0.95
2023-04-06T06:18:04.066Z,0.95
2023-04-06T06:19:04.060Z,0.93
2023-04-06T06:20:03.961Z,0.95
2023-04-06T06:21:03.945Z,0.96
2023-04-06T06:22:03.962Z,0.94
2023-04-06T06:23:03.924Z,0.94
2023-04-06T06:24:03.942Z,0.97
2023-04-06T06:25:03.947Z,0.94
2023-04-06T06:26:03.926Z,0.97
2023-04-06T06:27:03.904Z,0.95
2023-04-06T06:28:03.890Z,0.95
2023-04-06T06:29:03.882Z,0.95
2023-04-06T06:30:03.893Z,0.95
2023-04-06T06:31:03.860Z,0.96
2023-04-06T06:32:03.944Z,0.98
2023-04-06T06:33:03.900Z,0.96
2023-04-06T06:34:03.931Z,0.95
2023-04-06T06:35:03.895Z,0.96
2023-04-06T06:36:03.942Z,0.96
2023-04-06T06:37:03.921Z,0.94
2023-04-06T06:38:03.998Z,0.96
2023-04-06T06:39:04.054Z,0.95
2023-04-06T06:40:04.114Z,0.93
2023-04-06T06:41:04.133Z,0.95
2023-04-06T06:42:04.221Z,0.94
2023-04-06T06:43:04.227Z,0.92
2023-04-06T06:44:11.741Z,0.93
2023-04-06T06:45:04.220Z,0.94
2023-04-06T06:46:04.271Z,0.94
2023-04-06T06:47:04.271Z,0.94
2023-04-06T06:48:04.269Z,0.94
2023-04-06T06:49:04.257Z,0.95
2023-04-06T06:50:04.241Z,0.96
2023-04-06T06:51:04.240Z,0.96
2023-04-06T06:52:04.248Z,0.94
2023-04-06T06:53:04.183Z,0.95
2023-04-06T06:54:04.197Z,0.94
2023-04-06T06:55:04.187Z,0.93
2023-04-06T06:56:04.190Z,0.95
2023-04-06T06:57:04.177Z,0.95
2023-04-06T06:58:04.150Z,0.94
2023-04-06T06:59:04.208Z,0.96
2023-04-06T07:00:04.165Z,0.95
2023-04-06T07:01:04.234Z,0.95
2023-04-06T07:02:04.278Z,0.94
2023-04-06T07:03:04.150Z,0.94
2023-04-06T07:04:04.195Z,0.95
2023-04-06T07:05:10.170Z,0.94
2023-04-06T07:06:05.161Z,0.94
2023-04-06T07:07:04.083Z,0.94
2023-04-06T07:08:04.113Z,0.95
2023-04-06T07:09:04.089Z,0.95
2023-04-06T07:10:04.105Z,0.95
2023-04-06T07:11:04.092Z,0.96
2023-04-06T07:12:04.054Z,0.96
2023-04-06T07:13:04.093Z,0.97
2023-04-06T07:14:04.063Z,0.97
2023-04-06T07:15:04.075Z,0.95
2023-04-06T07:16:04.097Z,0.99
2023-04-06T07:17:04.219Z,0.97
2023-04-06T07:18:04.272Z,0.97
2023-04-06T07:19:04.239Z,0.97
2023-04-06T07:20:04.301Z,0.96
2023-04-06T07:21:04.356Z,0.95
2023-04-06T07:22:04.416Z,0.93
2023-04-06T07:23:04.528Z,0.95
2023-04-06T07:24:04.483Z,0.92
2023-04-06T07:25:04.553Z,0.92
2023-04-06T07:26:04.595Z,0.94
2023-04-06T07:27:04.600Z,0.93
2023-04-06T07:28:04.662Z,0.94
2023-04-06T07:29:04.723Z,0.94
2023-04-06T07:30:04.773Z,0.93
2023-04-06T07:31:04.744Z,0.93
2023-04-06T07:32:04.890Z,0.92
2023-04-06T07:33:04.916Z,0.93
2023-04-06T07:34:04.867Z,0.93
2023-04-06T07:35:04.964Z,0.94
2023-04-06T07:36:04.953Z,0.94
2023-04-06T07:37:04.966Z,0.95
2023-04-06T07:38:04.988Z,0.95
2023-04-06T07:39:04.977Z,0.92
2023-04-06T07:40:05.023Z,0.94
2023-04-06T07:41:05.047Z,0.93
2023-04-06T07:42:05.018Z,0.93
2023-04-06T07:43:05.110Z,0.94
2023-04-06T07:44:05.074Z,0.95
2023-04-06T07:45:05.060Z,0.94
2023-04-06T07:46:05.160Z,0.95
2023-04-06T07:47:05.060Z,0.92
2023-04-06T07:48:05.127Z,0.95
2023-04-06T07:49:05.110Z,0.95
2023-04-06T07:50:05.083Z,0.95
2023-04-06T07:51:05.124Z,0.95
2023-04-06T07:52:05.047Z,0.96
2023-04-06T07:53:05.101Z,0.95
2023-04-06T07:54:05.318Z,0.95
2023-04-06T07:55:05.161Z,0.95
2023-04-06T07:56:05.201Z,0.93
2023-04-06T07:57:05.234Z,0.95
2023-04-06T07:58:05.342Z,0.96
2023-04-06T07:59:05.341Z,0.97
2023-04-06T08:00:05.463Z,0.96
2023-04-06T08:01:05.423Z,0.92
2023-04-06T08:02:05.564Z,0.93
2023-04-06T08:03:05.663Z,0.96
2023-04-06T08:04:05.754Z,0.97
2023-04-06T08:05:05.696Z,0.95
2023-04-06T08:06:05.745Z,0.96
2023-04-06T08:07:05.798Z,0.96
2023-04-06T08:08:05.888Z,0.97
2023-04-06T08:09:05.941Z,0.96
2023-04-06T08:10:06.018Z,0.95
2023-04-06T08:11:06.027Z,0.95
2023-04-06T08:12:06.124Z,0.93
2023-04-06T08:13:06.161Z,0.95
2023-04-06T08:14:06.299Z,0.94
2023-04-06T08:15:06.272Z,0.96
2023-04-06T08:16:06.341Z,0.91
2023-04-06T08:17:06.687Z,0.93
2023-04-06T08:18:06.564Z,0.93
2023-04-06T08:19:06.500Z,0.95
2023-04-06T08:20:06.550Z,0.92
2023-04-06T08:21:06.605Z,0.93
2023-04-06T08:22:06.525Z,0.93
2023-04-06T08:23:06.560Z,0.93
2023-04-06T08:24:07.009Z,0.91
2023-04-06T08:25:06.677Z,0.92
2023-04-06T08:26:06.669Z,0.90
2023-04-06T08:27:06.787Z,0.91
2023-04-06T08:28:06.705Z,0.90
2023-04-06T08:29:06.744Z,0.92
2023-04-06T08:30:06.864Z,0.88
2023-04-06T08:31:06.860Z,0.92
2023-04-06T08:32:06.885Z,0.90
2023-04-06T08:33:06.887Z,0.90
2023-04-06T08:34:07.379Z,0.89
2023-04-06T08:35:06.885Z,0.89
2023-04-06T08:36:07.003Z,0.88
2023-04-06T08:37:06.943Z,0.90
2023-04-06T08:38:06.937Z,0.89
2023-04-06T08:39:06.995Z,0.88
2023-04-06T08:40:06.991Z,0.88
2023-04-06T08:41:08.161Z,0.87
2023-04-06T08:42:07.017Z,0.87
2023-04-06T08:43:07.057Z,0.87
2023-04-06T08:44:07.257Z,0.89
2023-04-06T08:45:07.053Z,0.87
2023-04-06T08:46:07.085Z,0.88
2023-04-06T08:47:07.121Z,0.88
2023-04-06T08:48:07.174Z,0.89
2023-04-06T08:49:07.123Z,0.87
2023-04-06T08:50:07.121Z,0.87
2023-04-06T08:51:07.135Z,0.87
2023-04-06T08:52:07.164Z,0.87
2023-04-06T08:53:07.151Z,0.86
2023-04-06T08:54:07.503Z,0.87
2023-04-06T08:55:07.214Z,0.85
2023-04-06T08:56:07.202Z,0.86
2023-04-06T08:57:07.177Z,0.86
2023-04-06T08:58:07.212Z,0.86
2023-04-06T08:59:07.267Z,0.86
2023-04-06T09:00:07.197Z,0.84
2023-04-06T09:01:07.212Z,0.84
2023-04-06T09:02:07.382Z,0.84
2023-04-06T09:03:07.492Z,0.85
2023-04-06T09:04:09.306Z,0.86
2023-04-06T09:05:07.839Z,0.82
2023-04-06T09:06:07.260Z,0.84
2023-04-06T09:07:07.326Z,0.85
2023-04-06T09:08:07.322Z,0.83
2023-04-06T09:09:07.289Z,0.84
2023-04-06T09:10:07.302Z,0.85
2023-04-06T09:11:07.315Z,0.85
2023-04-06T09:12:07.280Z,0.81
2023-04-06T09:13:07.373Z,0.83
2023-04-06T09:14:07.426Z,0.83
2023-04-06T09:15:07.293Z,0.83
2023-04-06T09:16:07.383Z,0.84
2023-04-06T09:17:07.335Z,0.83
2023-04-06T09:18:07.325Z,0.81
2023-04-06T09:19:07.318Z,0.81
2023-04-06T09:20:07.308Z,0.83
2023-04-06T09:21:07.278Z,0.83
2023-04-06T09:22:07.319Z,0.80
2023-04-06T09:23:07.288Z,0.82
2023-04-06T09:24:07.787Z,0.81
2023-04-06T09:25:07.291Z,0.81
2023-04-06T09:26:08.219Z,0.80
2023-04-06T09:27:07.323Z,0.81
2023-04-06T09:28:07.286Z,0.81
2023-04-06T09:29:07.324Z,0.81
2023-04-06T09:30:07.318Z,0.80
2023-04-06T09:31:07.295Z,0.81
2023-04-06T09:32:07.286Z,0.82
2023-04-06T09:33:07.337Z,0.78
2023-04-06T09:34:07.606Z,0.79
2023-04-06T09:35:07.321Z,0.81
2023-04-06T09:36:07.350Z,0.81
2023-04-06T09:37:07.445Z,0.79
2023-04-06T09:38:07.491Z,0.80
2023-04-06T09:39:07.559Z,0.78
2023-04-06T09:40:07.569Z,0.79
2023-04-06T09:41:07.576Z,0.80
2023-04-06T09:42:07.702Z,0.79
2023-04-06T09:43:07.729Z,0.78
2023-04-06T09:44:08.111Z,0.77
2023-04-06T09:45:07.909Z,0.79
2023-04-06T09:46:07.921Z,0.76
2023-04-06T09:47:08.045Z,0.77
2023-04-06T09:48:08.136Z,0.78
2023-04-06T09:49:08.252Z,0.76
2023-04-06T09:50:08.158Z,0.77
2023-04-06T09:51:08.265Z,0.76
2023-04-06T09:52:08.367Z,0.75
2023-04-06T09:53:08.369Z,0.76
2023-04-06T09:54:08.587Z,0.74
2023-04-06T09:55:08.462Z,0.75
2023-04-06T09:56:08.528Z,0.74
2023-04-06T09:57:08.639Z,0.76
2023-04-06T09:58:08.656Z,0.75
2023-04-06T09:59:09.021Z,0.73
2023-04-06T10:00:08.825Z,0.73
2023-04-06T10:01:08.916Z,0.73
2023-04-06T10:02:08.954Z,0.75
2023-04-06T10:03:09.796Z,0.75
2023-04-06T10:04:09.594Z,0.73
2023-04-06T10:05:09.050Z,0.73
2023-04-06T10:06:09.122Z,0.75
2023-04-06T10:07:09.182Z,0.72
2023-04-06T10:08:09.210Z,0.73
2023-04-06T10:09:09.290Z,0.73
2023-04-06T10:10:09.342Z,0.72
2023-04-06T10:11:09.404Z,0.73
2023-04-06T10:12:09.393Z,0.73
2023-04-06T10:13:09.460Z,0.74
2023-04-06T10:14:09.723Z,0.73
2023-04-06T10:15:09.573Z,0.73
2023-04-06T10:16:09.652Z,0.71
2023-04-06T10:17:09.635Z,0.72
2023-04-06T10:18:09.866Z,0.72
2023-04-06T10:19:09.745Z,0.73
2023-04-06T10:20:09.816Z,0.70
2023-04-06T10:21:09.869Z,0.72
2023-04-06T10:22:09.972Z,0.71
2023-04-06T10:23:09.999Z,0.70
2023-04-06T10:24:10.275Z,0.71
2023-04-06T10:25:10.034Z,0.73
2023-04-06T10:26:10.066Z,0.71
2023-04-06T10:27:10.129Z,0.71
2023-04-06T10:28:10.142Z,0.70
2023-04-06T10:29:10.203Z,0.70
2023-04-06T10:30:10.259Z,0.69
2023-04-06T10:31:10.274Z,0.69
2023-04-06T10:32:10.345Z,0.68
2023-04-06T10:33:10.349Z,0.68
2023-04-06T10:34:10.591Z,0.68
2023-04-06T10:35:10.459Z,0.67
2023-04-06T10:36:10.521Z,0.69
2023-04-06T10:37:10.616Z,0.68
2023-04-06T10:38:10.571Z,0.70
2023-04-06T10:39:10.625Z,0.68
2023-04-06T10:40:10.639Z,0.66
2023-04-06T10:41:10.716Z,0.66
2023-04-06T10:42:10.917Z,0.66
2023-04-06T10:43:10.863Z,0.66
2023-04-06T10:44:10.883Z,0.65
2023-04-06T10:45:10.885Z,0.66
2023-04-06T10:46:11.120Z,0.65
2023-04-06T10:47:11.001Z,0.65
2023-04-06T10:48:11.104Z,0.66
2023-04-06T10:49:11.119Z,0.67
2023-04-06T10:50:11.210Z,0.65
2023-04-06T10:51:11.233Z,0.66
2023-04-06T10:52:11.263Z,0.64
2023-04-06T10:53:11.268Z,0.64
2023-04-06T10:54:11.282Z,0.64
2023-04-06T10:55:11.358Z,0.64
2023-04-06T10:56:11.452Z,0.62
2023-04-06T10:57:11.464Z,0.63
2023-04-06T10:58:11.532Z,0.63
2023-04-06T10:59:11.658Z,0.63
2023-04-06T11:00:12.713Z,0.61
2023-04-06T11:01:11.767Z,0.61
2023-04-06T11:02:11.745Z,0.62
2023-04-06T11:03:11.934Z,0.62
2023-04-06T11:04:11.884Z,0.61
2023-04-06T11:05:11.908Z,0.58
2023-04-06T11:06:11.970Z,0.61
2023-04-06T11:07:11.995Z,0.59
2023-04-06T11:08:12.036Z,0.59
2023-04-06T11:09:12.056Z,0.61
2023-04-06T11:10:17.557Z,0.59
2023-04-06T11:11:13.087Z,0.59
2023-04-06T11:12:12.075Z,0.57
2023-04-06T11:13:12.081Z,0.58
2023-04-06T11:14:12.082Z,0.57
2023-04-06T11:15:12.041Z,0.56
2023-04-06T11:16:12.065Z,0.57
2023-04-06T11:17:12.131Z,0.54
2023-04-06T11:18:12.096Z,0.57
2023-04-06T11:19:12.009Z,0.56
2023-04-06T11:20:12.057Z,0.55
2023-04-06T11:21:12.027Z,0.56
2023-04-06T11:22:12.043Z,0.55
2023-04-06T11:23:11.984Z,0.55
2023-04-06T11:24:11.982Z,0.53
2023-04-06T11:25:11.971Z,0.54
2023-04-06T11:26:12.022Z,0.53
2023-04-06T11:27:11.959Z,0.52
2023-04-06T11:28:11.966Z,0.52
2023-04-06T11:29:11.936Z,0.52
2023-04-06T11:30:11.945Z,0.51
2023-04-06T11:31:12.102Z,0.51
2023-04-06T11:32:11.938Z,0.51
2023-04-06T11:33:11.965Z,0.51
2023-04-06T11:34:11.934Z,0.52
2023-04-06T11:35:11.943Z,0.52
2023-04-06T11:36:13.060Z,0.50
2023-04-06T11:37:11.951Z,0.51
2023-04-06T11:38:11.898Z,0.50
2023-04-06T11:39:11.910Z,0.52
2023-04-06T11:40:11.902Z,0.52
2023-04-06T11:41:11.907Z,0.51
2023-04-06T11:42:11.861Z,0.51
2023-04-06T11:43:11.879Z,0.51
2023-04-06T11:44:11.904Z,0.51
2023-04-06T11:45:11.840Z,0.51
2023-04-06T11:46:11.870Z,0.51
2023-04-06T11:47:11.912Z,0.52
2023-04-06T11:49:12.423Z,0.51
2023-04-06T11:50:11.897Z,0.50
2023-04-06T11:51:11.896Z,0.51
2023-04-06T11:52:11.905Z,0.52
2023-04-06T11:53:11.905Z,0.52
2023-04-06T11:54:11.903Z,0.52
2023-04-06T11:55:11.875Z,0.52
2023-04-06T11:56:11.913Z,0.52
2023-04-06T11:57:11.944Z,0.51
2023-04-06T11:58:11.923Z,0.51
2023-04-06T11:59:12.019Z,0.51
2023-04-06T12:00:12.037Z,0.51
2023-04-06T12:01:11.930Z,0.50
2023-04-06T12:02:11.916Z,0.51
2023-04-06T12:03:12.024Z,0.51
2023-04-06T12:04:11.981Z,0.52
2023-04-06T12:05:11.942Z,0.51
2023-04-06T12:06:11.917Z,0.52
2023-04-06T12:07:11.929Z,0.51
2023-04-06T12:08:11.896Z,0.53
2023-04-06T12:09:11.945Z,0.52
2023-04-06T12:10:12.081Z,0.51
2023-04-06T12:11:12.026Z,0.50
2023-04-06T12:12:11.943Z,0.51
2023-04-06T12:13:11.983Z,0.51
2023-04-06T12:14:11.996Z,0.51
2023-04-06T12:15:12.001Z,0.51
2023-04-06T12:16:11.941Z,0.52
2023-04-06T12:17:11.976Z,0.52
2023-04-06T12:18:12.025Z,0.52
2023-04-06T12:19:12.034Z,0.50
2023-04-06T12:20:24.711Z,0.51
2023-04-06T12:21:13.018Z,0.51
2023-04-06T12:22:11.949Z,0.51
2023-04-06T12:23:11.949Z,0.51
2023-04-06T12:24:11.957Z,0.50
2023-04-06T12:25:11.955Z,0.50
2023-04-06T12:26:13.271Z,0.51
2023-04-06T12:27:11.963Z,0.51
2023-04-06T12:28:11.889Z,0.50
2023-04-06T12:29:11.934Z,0.50
2023-04-06T12:30:11.992Z,0.51
2023-04-06T12:31:11.936Z,0.50
2023-04-06T12:32:11.932Z,0.50
2023-04-06T12:33:12.023Z,0.51
2023-04-06T12:34:11.934Z,0.52
2023-04-06T12:35:11.865Z,0.53
2023-04-06T12:36:11.863Z,0.53
2023-04-06T12:37:11.839Z,0.52
2023-04-06T12:38:11.885Z,0.50
2023-04-06T12:39:11.834Z,0.51
2023-04-06T12:40:11.866Z,0.51
2023-04-06T12:41:11.858Z,0.51
2023-04-06T12:42:11.884Z,0.51
2023-04-06T12:43:11.826Z,0.52
2023-04-06T12:44:11.819Z,0.52
2023-04-06T12:45:11.827Z,0.52
2023-04-06T12:46:11.822Z,0.51
2023-04-06T12:47:11.808Z,0.51
2023-04-06T12:48:11.797Z,0.52
2023-04-06T12:49:11.763Z,0.51
2023-04-06T12:50:11.763Z,0.52
2023-04-06T12:51:11.774Z,0.50
2023-04-06T12:52:11.800Z,0.50
2023-04-06T12:53:11.802Z,0.51
2023-04-06T12:54:11.736Z,0.50
2023-04-06T12:55:11.756Z,0.51
2023-04-06T12:56:11.809Z,0.50
2023-04-06T12:57:11.726Z,0.52
2023-04-06T12:58:11.703Z,0.50
2023-04-06T12:59:11.770Z,0.51
2023-04-06T13:00:11.761Z,0.51
2023-04-06T13:01:11.750Z,0.51
2023-04-06T13:02:11.736Z,0.50
2023-04-06T13:03:11.748Z,0.52
2023-04-06T13:04:11.746Z,0.51
2023-04-06T13:05:11.765Z,0.52
2023-04-06T13:06:11.786Z,0.51
2023-04-06T13:07:11.779Z,0.52
2023-04-06T13:08:11.782Z,0.51
2023-04-06T13:09:11.854Z,0.51
2023-04-06T13:10:11.858Z,0.53
2023-04-06T13:11:11.899Z,0.51
2023-04-06T13:12:11.886Z,0.50
2023-04-06T13:13:11.875Z,0.52
2023-04-06T13:14:11.892Z,0.50
2023-04-06T13:15:11.931Z,0.51
2023-04-06T13:16:11.947Z,0.52
2023-04-06T13:17:11.937Z,0.52
2023-04-06T13:18:12.023Z,0.51
2023-04-06T13:19:11.971Z,0.50
2023-04-06T13:20:12.050Z,0.51